Terminal Aerodrome Forecast
Issued by NWS

Home | Current Version | Previous Version | Text Only | Print | Product List | Glossary Off
Versions: 1 2 3 4 5 6 7 8 9 10 11 12 13 14 15 16 17 18 19 20 21 22 23 24

703
FTUS43 KLOT 160855 AAA
TAFMDW
TAF AMD
KMDW 160855Z 1609/1706 27005KT P6SM SCT090
     FM161600 25009KT P6SM FEW250
     FM170000 22005KT P6SM FEW250=

USA.gov is the U.S. government's official web portal to all federal, state and local government web resources and services.